West Bend, WI

12:55 PM CDT on May 21, 2018 (GMT -0500)
West Bend Municipal

Weather History for KETB - September, 2013

Change the Weather History Date:

Monday, September 23, 2013

  Actual Average Record
Temperature  
Mean Temperature 48 °F -  
Max Temperature 60 °F 65 °F 92 °F (1937)
Min Temperature 35 °F 44 °F 31 °F (1982)
Degree Days  
Heating Degree Days 18    
Moisture  
Dew Point 41 °F    
Average Humidity 81    
Maximum Humidity 100    
Minimum Humidity 55    
Precipitation  
Precipitation 0.00 in - - ()
Sea Level Pressure  
Sea Level Pressure 30.10 in    
Wind  
Wind Speed 2 mph (ESE)    
Max Wind Speed 10 mph    
Max Gust Speed -    
Visibility 9 miles    
Events      
Averages and records for this station are not official NWS values.
T = Trace of Precipitation, MM = Missing Value Source: NWS Daily Summary

Daily Weather History Graph

Daily Weather History Graph

Search for Another Location

Airport or City:

Astronomy

Sep. 23, 2013 Rise Set
Actual Time 6:41 AM CDT 6:47 PM CDT
Civil Twilight 6:12 AM CDT 7:16 PM CDT
Nautical Twilight 5:39 AM CDT 7:49 PM CDT
Astronomical Twilight 5:05 AM CDT 8:23 PM CDT
Moon 9:11 PM CDT (9/23) 11:08 AM CDT (9/23)
Length of Visible Light 13h 03m
Length of Day
12h 06m
Waning Gibbous, 81% of the Moon is Illuminated
Sep 23
Waning Gibbous
Sep 26
Last Quarter
Oct 4
New
Oct 11
First Quarter
Oct 18
Full

Hourly Weather History & Observations

Time (CDT) Temp. Dew Point Humidity Pressure Visibility Wind Dir Wind Speed Gust Speed Precip Events Conditions
12:15 AM 41.0 °F 37.4 °F 87% 30.08 in 10.0 mi Calm Calm - N/A   Clear
12:35 AM 39.2 °F 37.4 °F 93% 30.08 in 10.0 mi Calm Calm - N/A   Clear
12:55 AM 39.2 °F 37.4 °F 93% 30.08 in 10.0 mi Calm Calm - N/A   Clear
1:15 AM 39.2 °F 37.4 °F 93% 30.09 in 10.0 mi Calm Calm - N/A   Clear
1:35 AM 39.2 °F 37.4 °F 93% 30.08 in 10.0 mi Calm Calm - N/A   Clear
1:55 AM 37.4 °F 37.4 °F 100% 30.08 in 2.5 mi Calm Calm - N/A   Clear
2:15 AM 37.4 °F 37.4 °F 100% 30.08 in 10.0 mi Calm Calm - N/A   Clear
2:35 AM 37.4 °F 35.6 °F 93% 30.08 in 10.0 mi Calm Calm - N/A   Clear
2:55 AM 37.4 °F 35.6 °F 93% 30.08 in 10.0 mi Calm Calm - N/A   Clear
3:15 AM 37.4 °F 35.6 °F 93% 30.08 in 4.0 mi Calm Calm - N/A   Clear
3:35 AM 37.4 °F 35.6 °F 93% 30.08 in 10.0 mi Calm Calm - N/A   Clear
3:55 AM 37.4 °F 35.6 °F 93% 30.09 in 3.0 mi Calm Calm - N/A   Clear
4:15 AM 37.4 °F 35.6 °F 93% 30.09 in 10.0 mi Calm Calm - N/A   Clear
4:35 AM 37.4 °F 35.6 °F 93% 30.10 in 2.0 mi Calm Calm - N/A   Clear
4:55 AM 35.6 °F 35.6 °F 100% 30.10 in 7.0 mi Calm Calm - N/A   Clear
5:15 AM 37.4 °F 35.6 °F 93% 30.10 in 2.0 mi Calm Calm - N/A   Clear
5:35 AM 35.6 °F 35.6 °F 100% 30.10 in 7.0 mi Calm Calm - N/A   Clear
5:55 AM 35.6 °F 35.6 °F 100% 30.11 in 10.0 mi Calm Calm - N/A   Clear
6:15 AM 35.6 °F 35.6 °F 100% 30.11 in 5.0 mi Calm Calm - N/A   Clear
6:35 AM 35.6 °F 35.6 °F 100% 30.11 in 10.0 mi Calm Calm - N/A   Scattered Clouds
6:55 AM 35.6 °F 35.6 °F 100% 30.12 in 10.0 mi Calm Calm - N/A   Clear
7:15 AM 37.4 °F 35.6 °F 93% 30.12 in 10.0 mi Calm Calm - N/A   Clear
7:35 AM 37.4 °F 35.6 °F 93% 30.12 in 10.0 mi Calm Calm - N/A   Clear
7:55 AM 41.0 °F 37.4 °F 87% 30.13 in 10.0 mi Calm Calm - N/A   Clear
8:15 AM 42.8 °F 41.0 °F 93% 30.12 in 10.0 mi Calm Calm - N/A   Scattered Clouds
8:35 AM 46.4 °F 42.8 °F 87% 30.12 in 10.0 mi Calm Calm - N/A   Mostly Cloudy
8:55 AM 50.0 °F 44.6 °F 82% 30.12 in 10.0 mi Calm Calm - N/A   Mostly Cloudy
9:15 AM 51.8 °F 44.6 °F 76% 30.13 in 10.0 mi ENE 3.5 mph - N/A   Mostly Cloudy
9:35 AM 53.6 °F 46.4 °F 77% 30.13 in 10.0 mi Calm Calm - N/A   Overcast
9:55 AM 55.4 °F 46.4 °F 72% 30.14 in 10.0 mi SE 4.6 mph - N/A   Overcast
10:15 AM 55.4 °F 44.6 °F 67% 30.14 in 10.0 mi ESE 6.9 mph - N/A   Overcast
10:35 AM 57.2 °F 44.6 °F 63% 30.14 in 10.0 mi SSE 6.9 mph - N/A   Mostly Cloudy
10:55 AM 57.2 °F 44.6 °F 63% 30.14 in 10.0 mi ESE 4.6 mph - N/A   Mostly Cloudy
11:15 AM 57.2 °F 44.6 °F 63% 30.15 in 10.0 mi ESE 4.6 mph - N/A   Mostly Cloudy
11:35 AM 59.0 °F 44.6 °F 59% 30.15 in 10.0 mi ESE 4.6 mph - N/A   Overcast
11:55 AM 59.0 °F 44.6 °F 59% 30.14 in 10.0 mi East 6.9 mph - N/A   Mostly Cloudy
12:15 PM 59.0 °F 44.6 °F 59% 30.14 in 10.0 mi ESE 6.9 mph - N/A   Mostly Cloudy
12:35 PM 60.8 °F 44.6 °F 55% 30.13 in 10.0 mi ESE 8.1 mph - N/A   Overcast
1:35 PM 60.8 °F 44.6 °F 55% 30.10 in 10.0 mi East 9.2 mph - N/A   Scattered Clouds
1:55 PM 60.8 °F 44.6 °F 55% 30.10 in 10.0 mi ESE 9.2 mph - N/A   Scattered Clouds
2:15 PM 60.8 °F 46.4 °F 59% 30.10 in 10.0 mi ESE 8.1 mph - N/A   Scattered Clouds
2:35 PM 60.8 °F 46.4 °F 59% 30.09 in 10.0 mi East 9.2 mph - N/A   Clear
2:55 PM 60.8 °F 44.6 °F 55% 30.10 in 10.0 mi SE 8.1 mph - N/A   Scattered Clouds
3:15 PM 59.0 °F 44.6 °F 59% 30.09 in 10.0 mi SE 8.1 mph - N/A   Scattered Clouds
3:35 PM 59.0 °F 44.6 °F 59% 30.09 in 10.0 mi East 10.4 mph - N/A   Scattered Clouds
3:55 PM 59.0 °F 44.6 °F 59% 30.09 in 10.0 mi East 8.1 mph - N/A   Clear
4:15 PM 57.2 °F 42.8 °F 59% 30.09 in 10.0 mi East 8.1 mph - N/A   Clear
4:35 PM 59.0 °F 44.6 °F 59% 30.09 in 10.0 mi East 10.4 mph - N/A   Clear
4:55 PM 59.0 °F 44.6 °F 59% 30.08 in 10.0 mi East 9.2 mph - N/A   Clear
5:15 PM 57.2 °F 44.6 °F 63% 30.08 in 10.0 mi East 8.1 mph - N/A   Clear
5:35 PM 55.4 °F 44.6 °F 67% 30.08 in 10.0 mi ESE 6.9 mph - N/A   Clear
5:55 PM 55.4 °F 44.6 °F 67% 30.08 in 10.0 mi ESE 6.9 mph - N/A   Clear
6:15 PM 55.4 °F 44.6 °F 67% 30.08 in 10.0 mi ESE 5.8 mph - N/A   Clear
6:35 PM 53.6 °F 44.6 °F 72% 30.08 in 10.0 mi ESE 3.5 mph - N/A   Clear
6:55 PM 51.8 °F 44.6 °F 76% 30.08 in 10.0 mi Calm Calm - N/A   Clear
7:15 PM 51.8 °F 44.6 °F 76% 30.08 in 10.0 mi Calm Calm - N/A   Clear
7:35 PM 50.0 °F 44.6 °F 82% 30.08 in 10.0 mi Calm Calm - N/A   Clear
7:55 PM 48.2 °F 44.6 °F 87% 30.08 in 10.0 mi Calm Calm - N/A   Clear
8:15 PM 46.4 °F 44.6 °F 93% 30.09 in 10.0 mi Calm Calm - N/A   Clear
8:35 PM 46.4 °F 44.6 °F 93% 30.09 in 10.0 mi Calm Calm - N/A   Clear
8:55 PM 44.6 °F 42.8 °F 93% 30.08 in 10.0 mi Calm Calm - N/A   Clear
9:15 PM 44.6 °F 42.8 °F 93% 30.08 in 7.0 mi Calm Calm - N/A   Clear
9:35 PM 44.6 °F 42.8 °F 93% 30.08 in 5.0 mi Calm Calm - N/A   Clear
9:55 PM 44.6 °F 42.8 °F 93% 30.08 in 1.0 mi Calm Calm - N/A   Mist
10:15 PM 42.8 °F 42.8 °F 100% 30.08 in 5.0 mi Calm Calm - N/A   Clear
10:35 PM 42.8 °F 42.8 °F 100% 30.08 in 7.0 mi Calm Calm - N/A   Clear
10:55 PM 42.8 °F 41.0 °F 93% 30.08 in 2.0 mi Calm Calm - N/A   Clear
11:15 PM 42.8 °F 41.0 °F 93% 30.07 in 10.0 mi Calm Calm - N/A   Clear
11:35 PM 42.8 °F 41.0 °F 93% 30.07 in 2.5 mi Calm Calm - N/A   Clear
11:55 PM 42.8 °F 41.0 °F 93% 30.07 in 4.0 mi Calm Calm - N/A   Clear